UAL725 KIAH-KSFO
Flight info
| Callsign | UAL725 |
|---|---|
| Flight time | N/A |
| Altitude | 38000 |
| Route | BNDTO6 CRGER CNX/N0478F400 PGS BLD BTY RUSME DYAMD5 |
| Aircraft | B772/H-SDE2E3FGHIJ5LORVWXY/LB1D1 |
Departure
| Time | 2025-09-10 16:07 |
|---|---|
| Airport | George Bush Intercontinental Airport (KIAH) |
Arrival
| Time | N/A |
|---|---|
| Airport | San Francisco International Airport (KSFO) |
| Time | Latitude | Longitude | Altitude | Speed | Heading |
|---|---|---|---|---|---|
| 2025-09-10 15:13 | 29.98993 | -95.34116 | 111 ft | 0 kts | 270° |
| 2025-09-10 15:53 | 29.98994 | -95.34077 | 110 ft | 2 kts | 299° |
| 2025-09-10 15:54 | 29.98969 | -95.34046 | 108 ft | 3 kts | 341° |
| 2025-09-10 15:54 | 29.98933 | -95.34043 | 111 ft | 3 kts | 2° |
| 2025-09-10 15:55 | 29.98892 | -95.34042 | 111 ft | 3 kts | 358° |
| 2025-09-10 16:02 | 29.99084 | -95.34107 | 111 ft | 18 kts | 274° |
| 2025-09-10 16:03 | 29.99088 | -95.34960 | 108 ft | 21 kts | 272° |
| 2025-09-10 16:04 | 29.99078 | -95.35457 | 111 ft | 17 kts | 240° |
| 2025-09-10 16:04 | 29.98916 | -95.35507 | 111 ft | 12 kts | 221° |
| 2025-09-10 16:05 | 29.98838 | -95.35655 | 112 ft | 7 kts | 242° |
| 2025-09-10 16:05 | 29.98828 | -95.35676 | 109 ft | 9 kts | 241° |
| 2025-09-10 16:06 | 29.98721 | -95.35742 | 112 ft | 0 kts | 153° |
| 2025-09-10 16:06 | 29.98049 | -95.35332 | 110 ft | 125 kts | 151° |
| 2025-09-10 16:07 | 29.95954 | -95.34090 | 989 ft | 174 kts | 154° |
| 2025-09-10 16:07 | 29.95682 | -95.33934 | 1267 ft | 171 kts | 152° |
| 2025-09-10 16:08 | 29.92804 | -95.34896 | 2736 ft | 208 kts | 246° |
| 2025-09-10 16:08 | 29.93117 | -95.38274 | 3821 ft | 229 kts | 290° |
| 2025-09-10 16:09 | 29.94183 | -95.42182 | 4647 ft | 276 kts | 284° |
| 2025-09-10 16:09 | 29.95058 | -95.46587 | 5003 ft | 285 kts | 281° |
| 2025-09-10 16:09 | 29.95458 | -95.48821 | 5007 ft | 283 kts | 281° |
| 2025-09-10 16:10 | 29.96512 | -95.55602 | 6950 ft | 290 kts | 279° |
| 2025-09-10 16:11 | 29.97208 | -95.60234 | 8718 ft | 297 kts | 280° |
| 2025-09-10 16:11 | 29.97565 | -95.62600 | 9556 ft | 301 kts | 281° |
| 2025-09-10 16:12 | 29.99725 | -95.72912 | 11449 ft | 372 kts | 285° |
| 2025-09-10 16:12 | 30.00381 | -95.75819 | 12240 ft | 379 kts | 285° |
| 2025-09-10 16:13 | 30.01703 | -95.81764 | 14113 ft | 386 kts | 285° |
| 2025-09-10 16:13 | 30.03035 | -95.87832 | 15785 ft | 394 kts | 284° |
| 2025-09-10 16:14 | 30.04377 | -95.93974 | 16014 ft | 397 kts | 284° |
| 2025-09-10 16:14 | 30.05720 | -96.00147 | 17099 ft | 404 kts | 284° |
| 2025-09-10 16:15 | 30.07084 | -96.06430 | 18675 ft | 409 kts | 284° |
| 2025-09-10 16:15 | 30.07672 | -96.09663 | 19353 ft | 414 kts | 281° |
| 2025-09-10 16:16 | 30.09127 | -96.19642 | 21322 ft | 425 kts | 280° |
| 2025-09-10 16:16 | 30.09991 | -96.25261 | 22374 ft | 431 kts | 280° |
| 2025-09-10 16:17 | 30.11050 | -96.32120 | 23608 ft | 437 kts | 280° |
| 2025-09-10 16:17 | 30.12293 | -96.40231 | 24902 ft | 445 kts | 280° |
| 2025-09-10 16:18 | 30.14846 | -96.57002 | 27177 ft | 461 kts | 281° |
| 2025-09-10 16:21 | 30.19875 | -96.90493 | 30670 ft | 477 kts | 281° |
| 2025-09-10 16:22 | 30.23764 | -97.16721 | 33212 ft | 467 kts | 282° |
| 2025-09-10 16:25 | 30.28615 | -97.49522 | 35992 ft | 457 kts | 282° |
| 2025-09-10 16:26 | 30.32319 | -97.74665 | 38001 ft | 445 kts | 284° |
| 2025-09-10 16:29 | 30.38989 | -98.05896 | 38219 ft | 444 kts | 285° |
| 2025-09-10 16:30 | 30.44063 | -98.30253 | 38225 ft | 444 kts | 285° |
| 2025-09-10 16:33 | 30.58349 | -98.57266 | 38212 ft | 440 kts | 304° |
| 2025-09-10 16:35 | 30.72092 | -98.80890 | 38209 ft | 441 kts | 304° |
| 2025-09-10 16:37 | 30.85668 | -99.04362 | 38213 ft | 438 kts | 304° |
| 2025-09-10 16:38 | 30.97503 | -99.24939 | 38209 ft | 436 kts | 304° |
| 2025-09-10 16:41 | 31.12577 | -99.51303 | 38204 ft | 434 kts | 304° |
| 2025-09-10 16:43 | 31.25927 | -99.74797 | 38207 ft | 433 kts | 304° |
| 2025-09-10 16:45 | 31.39204 | -99.98312 | 38204 ft | 432 kts | 303° |
| 2025-09-10 16:46 | 31.49028 | -100.15800 | 38193 ft | 431 kts | 303° |
| 2025-09-10 16:48 | 31.58863 | -100.33389 | 38194 ft | 429 kts | 303° |
| 2025-09-10 16:49 | 31.68652 | -100.50974 | 38193 ft | 430 kts | 303° |
| 2025-09-10 16:52 | 31.88203 | -100.86340 | 38214 ft | 430 kts | 303° |
| 2025-09-10 16:54 | 32.02756 | -101.12878 | 38206 ft | 431 kts | 302° |
| 2025-09-10 16:57 | 32.17293 | -101.39572 | 38204 ft | 429 kts | 302° |
| 2025-09-10 16:57 | 32.18900 | -101.42535 | 38204 ft | 428 kts | 302° |
| 2025-09-10 17:01 | 32.47701 | -101.96033 | 38211 ft | 428 kts | 302° |